Terminal Aerodrome Forecast
Issued by NWS Pueblo, CO

Home | Current Version | Previous Version | Text Only | Print | Product List | Glossary On
Versions: 1 2 3 4 5 6 7 8 9 10 11 12 13 14 15 16 17 18 19 20 21
000
FTUS45 KPUB 250539
TAFCOS
TAF
KCOS 250539Z 2506/2606 03006KT P6SM SKC
     FM251000 35009KT P6SM FEW150
     FM251600 28014KT P6SM FEW130 SCT170
     FM252100 30020G35KT P6SM VCTS SCT080CB BKN120
     FM260400 35012KT P6SM SCT080 SCT120=

USA.gov is the U.S. government's official web portal to all federal, state and local government web resources and services.